x

Western Hawaii - 205 Nm Sw Of Honolulu, Hi (51003) Wave Buoy

11:50am - Tue 4th Aug 2015 All times are HST. -10 hours from GMT.

  • Sig Wave height 5.2ft
  • Peak Period 12s
  • Average Period 6s
  • Wind
    11mph, 13mph gusts
  • Sea Temp 83°f
  • Air Temp 81°f
  • Sea Pressure 1011.6mb
  • Western  Hawaii - 205 Nm Sw Of Honolulu, Hi
  • Western  Hawaii - 205 Nm Sw Of Honolulu, Hi

More Historic Weather Station data

Upgrade to MSW Pro to gain access to the past 30 days of data for over 8000 Wavebouys and Weather Stations around the globe.

Join Pro

Comparision Forecast

View Surf forecast
   
Tue 08/04 11:50am 5ft 12s 6s 11 13 mph 1011.6mb 83f 81f
10:50am 5ft 13s 6s 13 16 mph 1011.5mb 82f 81f
9:50am 6ft 12s 7s 11 13 mph 1011.7mb 82f 81f
8:50am 5.5ft 13s 6s 11 13 mph 1011.7mb 82f 81f
7:50am 6ft 12s 7s 11 13 mph 1011.8mb 82f 81f
6:50am 6ft 13s 6s 11 13 mph 1011.6mb 82f 81f
5:50am 6ft 13s 6s 13 16 mph 1011mb 82f 80f
4:50am 6ft 14s 6s 13 18 mph 1010.6mb 82f 80f
3:50am 6.5ft 14s 6s 13 16 mph 1010.7mb 82f 81f
2:50am 5.5ft 12s 6s 13 16 mph 1011mb 82f 81f
1:50am 5.5ft 13s 6s 16 18 mph 1011.6mb 82f 81f
12:50am 5ft 11s 6s 16 18 mph 1011.9mb 82f 81f
Mon 08/03 11:50pm 5ft 13s 5s 16 18 mph 1012.3mb 82f 81f
10:50pm 5ft 8s 5s 16 18 mph 1012.5mb 82f 81f
9:50pm 5.5ft 12s 5s 16 20 mph 1012.3mb 82f 81f
8:50pm 5ft 14s 5s 18 22 mph 1011.5mb 82f 81f
7:50pm 5.5ft 9s 5s 18 22 mph 1010.9mb 82f 81f
6:50pm 5.5ft 13s  -  18 20 mph 1010.5mb 82f 81f
5:50pm 5.5ft 12s 6s 18 20 mph 1009.9mb 83f 81f
4:50pm 6ft 13s 6s 16 18 mph 1010mb 83f 82f
3:50pm 5.5ft 14s 6s 16 18 mph 1010.2mb 83f 81f
2:50pm 6ft 8s 6s 13 16 mph 1010.7mb 83f 82f
1:50pm 5ft 14s 6s 13 18 mph 1011.2mb 83f 82f
12:50pm 5ft 14s 6s 16 18 mph 1011.4mb 82f 81f
11:50am 5ft 8s 6s 16 18 mph 1011.7mb 82f 81f
10:50am 5ft 8s 6s 16 20 mph 1012mb 82f 81f
9:50am 5.5ft 8s 5s 18 20 mph 1011.9mb 82f 81f
8:50am 5ft 8s 5s 18 20 mph 1011.8mb 82f 81f
7:50am 6ft 15s 6s 18 20 mph 1011.7mb 82f 81f
6:50am 5.5ft 7s 6s 18 20 mph 1011.1mb 82f 81f
5:50am 5.5ft 8s 6s 16 20 mph 1010.8mb 82f 81f
4:50am 6ft 8s 6s 16 20 mph 1010.8mb 82f 81f
3:50am 6ft 7s 6s 16 18 mph 1010.8mb 82f 81f
2:50am 6ft 9s 6s 16 18 mph 1010.8mb 82f 81f
1:50am 5.5ft 7s 5s 16 20 mph 1011.1mb 82f 81f
12:50am 6ft 8s 5s 18 22 mph 1011.5mb 82f 81f
Sun 08/02 11:50pm 6ft 8s 5s 18 22 mph 1012mb 82f 82f
10:50pm 6ft 8s 5s 20 22 mph 1012.2mb 82f 82f
9:50pm 6.5ft 9s 5s 20 25 mph 1011.7mb 82f 82f
8:50pm 6.5ft 7s 5s 20 25 mph 1011.3mb 82f 82f
7:50pm 6.5ft 9s 5s 20 25 mph 1010.7mb 82f 82f
6:50pm 7ft 9s 6s 20 25 mph 1010.5mb 82f 82f
5:50pm 7ft 8s 6s 18 22 mph 1010.2mb 82f 82f
4:50pm 8ft 9s 6s 18 22 mph 1010mb 82f 82f
3:50pm 7.5ft 8s 6s 20 22 mph 1010.1mb 82f 82f
2:50pm 7ft 9s 6s 20 22 mph 1010.7mb 82f 82f
1:50pm 7ft 9s 6s 20 22 mph 1011mb 82f 81f
12:50pm 7.5ft 10s 6s 20 25 mph 1011.7mb 82f 82f
11:50am 7ft 10s 6s 20 25 mph 1011.9mb 82f 81f
10:50am 7ft 9s 6s 20 22 mph 1012.3mb 82f 81f
9:50am 7ft 8s 6s 20 25 mph 1012.3mb 82f 80f
8:50am 6.5ft 8s 6s 18 20 mph 1012mb 82f 82f
7:50am 6.5ft 8s 6s 18 20 mph 1011.7mb 82f 81f
6:50am 7ft 8s 6s 18 22 mph 1011.1mb 82f 81f
5:50am 7ft 8s 6s 20 22 mph 1010.9mb 82f 81f
4:50am 6.5ft 8s 6s 18 22 mph 1010.8mb 82f 81f
3:50am 6ft 7s 6s 18 22 mph 1010.7mb 82f 81f
2:50am 6.5ft 7s 5s 18 22 mph 1011.1mb 82f 81f
1:50am 6ft 8s 5s 20 22 mph 1011.7mb 82f 81f
12:50am 6ft 7s 5s 18 22 mph 1012.4mb 82f 81f
Sat 08/01 11:50pm 6ft 7s 5s 20 25 mph 1012.8mb 82f 82f
10:50pm 6ft 8s 5s 20 25 mph 1013.1mb 83f 82f
9:50pm 6ft 8s 5s 20 25 mph 1013mb 83f 82f
8:50pm 6ft 8s 5s 20 25 mph 1012.6mb 83f 82f
7:50pm 6ft 8s 5s 20 27 mph 1012.2mb 83f 82f
6:50pm 6ft 8s 5s 20 22 mph 1011.7mb 83f 82f
5:50pm 6ft 7s 5s 18 20 mph 1011.3mb 83f 82f
4:50pm 6ft 7s 5s 18 25 mph 1011.3mb 83f 82f
3:50pm 7ft 7s 6s 16 18 mph 1011.7mb 83f 82f
2:50pm 6.5ft 8s 6s 16 18 mph 1012mb 83f 82f
1:50pm 6.5ft 8s 6s 16 18 mph 1012.6mb 83f 82f
12:50pm 6ft 8s 6s 16 18 mph 1013.3mb 83f 82f
11:50am 6ft 8s 5s 18 20 mph 1013.7mb 83f 81f
10:50am 6ft 9s 5s 20 22 mph 1013.9mb 83f 80f
9:50am 5.5ft 8s 5s 20 25 mph 1013.8mb 83f 81f
8:50am 5.5ft 9s 6s 18 22 mph 1013.5mb 83f 81f
7:50am 6ft 14s 6s 13 18 mph 1013.3mb 83f 81f
6:50am 6ft 9s 6s 13 18 mph 1013mb 82f 81f
5:50am 6.5ft 8s 6s 18 20 mph 1012.6mb 82f 81f
4:50am 6.5ft 8s 6s 16 20 mph 1012.8mb 83f 81f
3:50am 7ft 9s 6s 18 20 mph 1013mb 83f 81f
2:50am 6.5ft 8s 6s 16 20 mph 1013.4mb 83f 82f
1:50am 6ft 9s 6s 11 13 mph 1014.1mb 83f 81f
12:50am 6ft 8s 6s 13 16 mph 1014.3mb 83f 82f
Fri 07/31 11:50pm 6ft 9s 6s 13 16 mph 1014.8mb 83f 82f